sensor_id;sensor_type;location;lat;lon;timestamp;P1;durP1;ratioP1;P2;durP2;ratioP2
79687;SDS011;69155;49.464;2.108;2023-07-30T00:01:14;8.95;;;2.60;;
79687;SDS011;69155;49.464;2.108;2023-07-30T00:03:42;4.10;;;2.38;;
79687;SDS011;69155;49.464;2.108;2023-07-30T00:06:13;9.27;;;3.13;;
79687;SDS011;69155;49.464;2.108;2023-07-30T00:08:44;6.38;;;2.63;;
79687;SDS011;69155;49.464;2.108;2023-07-30T00:11:12;8.68;;;3.90;;
79687;SDS011;69155;49.464;2.108;2023-07-30T00:13:43;9.52;;;3.00;;
79687;SDS011;69155;49.464;2.108;2023-07-30T00:16:11;8.98;;;3.00;;
79687;SDS011;69155;49.464;2.108;2023-07-30T00:18:42;7.97;;;2.83;;
79687;SDS011;69155;49.464;2.108;2023-07-30T00:21:22;12.05;;;2.60;;
79687;SDS011;69155;49.464;2.108;2023-07-30T00:23:53;7.43;;;2.00;;
79687;SDS011;69155;49.464;2.108;2023-07-30T00:26:33;10.85;;;2.50;;
79687;SDS011;69155;49.464;2.108;2023-07-30T00:29:01;7.00;;;2.67;;
79687;SDS011;69155;49.464;2.108;2023-07-30T00:31:32;4.35;;;2.45;;
79687;SDS011;69155;49.464;2.108;2023-07-30T00:34:03;9.25;;;2.50;;
79687;SDS011;69155;49.464;2.108;2023-07-30T00:36:31;7.80;;;2.60;;
79687;SDS011;69155;49.464;2.108;2023-07-30T00:39:02;5.53;;;2.60;;
79687;SDS011;69155;49.464;2.108;2023-07-30T00:41:34;7.03;;;2.70;;
79687;SDS011;69155;49.464;2.108;2023-07-30T00:44:02;8.13;;;2.90;;
79687;SDS011;69155;49.464;2.108;2023-07-30T00:46:31;8.75;;;2.83;;
79687;SDS011;69155;49.464;2.108;2023-07-30T00:49:02;12.02;;;2.88;;
79687;SDS011;69155;49.464;2.108;2023-07-30T00:51:33;7.25;;;3.00;;
79687;SDS011;69155;49.464;2.108;2023-07-30T00:54:02;5.88;;;2.70;;
79687;SDS011;69155;49.464;2.108;2023-07-30T00:56:33;7.95;;;2.45;;
79687;SDS011;69155;49.464;2.108;2023-07-30T00:59:02;5.50;;;2.50;;
79687;SDS011;69155;49.464;2.108;2023-07-30T01:01:33;10.13;;;3.10;;
79687;SDS011;69155;49.464;2.108;2023-07-30T01:04:13;6.15;;;2.70;;
79687;SDS011;69155;49.464;2.108;2023-07-30T01:06:41;8.93;;;2.58;;
79687;SDS011;69155;49.464;2.108;2023-07-30T01:09:12;6.20;;;2.72;;
79687;SDS011;69155;49.464;2.108;2023-07-30T01:11:44;16.63;;;3.35;;
79687;SDS011;69155;49.464;2.108;2023-07-30T01:14:24;6.85;;;2.50;;
79687;SDS011;69155;49.464;2.108;2023-07-30T01:16:54;6.80;;;3.53;;
79687;SDS011;69155;49.464;2.108;2023-07-30T01:19:22;7.63;;;2.50;;
79687;SDS011;69155;49.464;2.108;2023-07-30T01:21:53;4.65;;;2.45;;
79687;SDS011;69155;49.464;2.108;2023-07-30T01:24:33;12.63;;;2.88;;
79687;SDS011;69155;49.464;2.108;2023-07-30T01:27:05;4.95;;;2.45;;
79687;SDS011;69155;49.464;2.108;2023-07-30T01:29:48;11.65;;;3.08;;
79687;SDS011;69155;49.464;2.108;2023-07-30T01:34:54;9.05;;;2.90;;
79687;SDS011;69155;49.464;2.108;2023-07-30T01:37:22;10.43;;;3.67;;
79687;SDS011;69155;49.464;2.108;2023-07-30T01:39:54;9.43;;;3.17;;
79687;SDS011;69155;49.464;2.108;2023-07-30T01:42:27;8.18;;;2.88;;
79687;SDS011;69155;49.464;2.108;2023-07-30T01:48:11;11.85;;;3.35;;
79687;SDS011;69155;49.464;2.108;2023-07-30T01:50:42;11.15;;;3.22;;
79687;SDS011;69155;49.464;2.108;2023-07-30T01:53:14;12.88;;;3.50;;
79687;SDS011;69155;49.464;2.108;2023-07-30T01:55:42;8.38;;;3.15;;
79687;SDS011;69155;49.464;2.108;2023-07-30T01:58:22;8.15;;;3.40;;
79687;SDS011;69155;49.464;2.108;2023-07-30T02:00:53;10.13;;;3.47;;
79687;SDS011;69155;49.464;2.108;2023-07-30T02:03:25;8.27;;;3.13;;
79687;SDS011;69155;49.464;2.108;2023-07-30T02:05:53;9.75;;;3.70;;
79687;SDS011;69155;49.464;2.108;2023-07-30T02:08:24;8.98;;;3.13;;
79687;SDS011;69155;49.464;2.108;2023-07-30T02:11:04;8.43;;;3.08;;
79687;SDS011;69155;49.464;2.108;2023-07-30T02:13:32;8.63;;;3.33;;
79687;SDS011;69155;49.464;2.108;2023-07-30T02:16:03;8.18;;;2.88;;
79687;SDS011;69155;49.464;2.108;2023-07-30T02:18:31;7.13;;;2.90;;
79687;SDS011;69155;49.464;2.108;2023-07-30T02:21:02;8.73;;;3.58;;
79687;SDS011;69155;49.464;2.108;2023-07-30T02:23:33;10.63;;;3.17;;
79687;SDS011;69155;49.464;2.108;2023-07-30T02:26:02;12.40;;;3.00;;
79687;SDS011;69155;49.464;2.108;2023-07-30T02:28:33;11.88;;;3.20;;
79687;SDS011;69155;49.464;2.108;2023-07-30T02:31:01;11.77;;;3.55;;
79687;SDS011;69155;49.464;2.108;2023-07-30T02:33:32;8.05;;;2.60;;
79687;SDS011;69155;49.464;2.108;2023-07-30T02:36:03;15.88;;;4.05;;
79687;SDS011;69155;49.464;2.108;2023-07-30T02:38:31;8.13;;;2.90;;
79687;SDS011;69155;49.464;2.108;2023-07-30T02:41:02;11.55;;;3.42;;
79687;SDS011;69155;49.464;2.108;2023-07-30T02:43:33;13.77;;;3.20;;
79687;SDS011;69155;49.464;2.108;2023-07-30T02:46:01;13.10;;;3.33;;
79687;SDS011;69155;49.464;2.108;2023-07-30T02:48:32;11.15;;;2.75;;
79687;SDS011;69155;49.464;2.108;2023-07-30T02:51:03;17.20;;;3.83;;
79687;SDS011;69155;49.464;2.108;2023-07-30T02:53:31;7.53;;;3.42;;
79687;SDS011;69155;49.464;2.108;2023-07-30T02:56:03;9.20;;;4.07;;
79687;SDS011;69155;49.464;2.108;2023-07-30T02:58:31;12.52;;;3.20;;
79687;SDS011;69155;49.464;2.108;2023-07-30T03:01:14;15.25;;;4.03;;
79687;SDS011;69155;49.464;2.108;2023-07-30T03:03:42;8.48;;;2.90;;
79687;SDS011;69155;49.464;2.108;2023-07-30T03:09:02;13.43;;;3.97;;
79687;SDS011;69155;49.464;2.108;2023-07-30T03:11:33;24.73;;;3.70;;
79687;SDS011;69155;49.464;2.108;2023-07-30T03:14:04;13.18;;;3.00;;
79687;SDS011;69155;49.464;2.108;2023-07-30T03:16:32;9.02;;;3.33;;
79687;SDS011;69155;49.464;2.108;2023-07-30T03:21:52;12.65;;;2.95;;
79687;SDS011;69155;49.464;2.108;2023-07-30T03:24:23;15.77;;;5.03;;
79687;SDS011;69155;49.464;2.108;2023-07-30T03:26:54;9.95;;;3.00;;
79687;SDS011;69155;49.464;2.108;2023-07-30T03:29:22;10.32;;;3.40;;
79687;SDS011;69155;49.464;2.108;2023-07-30T03:31:53;7.40;;;2.55;;
79687;SDS011;69155;49.464;2.108;2023-07-30T03:34:21;11.18;;;3.08;;
79687;SDS011;69155;49.464;2.108;2023-07-30T03:36:52;16.02;;;3.30;;
79687;SDS011;69155;49.464;2.108;2023-07-30T03:39:23;12.82;;;3.17;;
79687;SDS011;69155;49.464;2.108;2023-07-30T03:41:52;13.63;;;3.03;;
79687;SDS011;69155;49.464;2.108;2023-07-30T03:44:23;7.05;;;3.08;;
79687;SDS011;69155;49.464;2.108;2023-07-30T03:46:51;14.07;;;3.10;;
79687;SDS011;69155;49.464;2.108;2023-07-30T03:49:22;12.82;;;3.22;;
79687;SDS011;69155;49.464;2.108;2023-07-30T03:51:53;9.77;;;2.80;;
79687;SDS011;69155;49.464;2.108;2023-07-30T03:54:21;15.18;;;3.50;;
79687;SDS011;69155;49.464;2.108;2023-07-30T03:56:52;7.07;;;3.00;;
79687;SDS011;69155;49.464;2.108;2023-07-30T03:59:23;6.65;;;2.67;;
79687;SDS011;69155;49.464;2.108;2023-07-30T04:01:51;12.35;;;2.60;;
79687;SDS011;69155;49.464;2.108;2023-07-30T04:04:25;18.42;;;2.75;;
79687;SDS011;69155;49.464;2.108;2023-07-30T04:06:53;10.48;;;2.30;;
79687;SDS011;69155;49.464;2.108;2023-07-30T04:09:24;9.60;;;2.67;;
79687;SDS011;69155;49.464;2.108;2023-07-30T04:11:52;10.00;;;2.88;;
79687;SDS011;69155;49.464;2.108;2023-07-30T04:14:23;12.07;;;2.22;;
79687;SDS011;69155;49.464;2.108;2023-07-30T04:16:54;10.02;;;2.65;;
79687;SDS011;69155;49.464;2.108;2023-07-30T04:19:33;11.55;;;2.75;;
79687;SDS011;69155;49.464;2.108;2023-07-30T04:22:04;14.85;;;2.80;;
79687;SDS011;69155;49.464;2.108;2023-07-30T04:24:32;13.60;;;2.90;;
79687;SDS011;69155;49.464;2.108;2023-07-30T04:27:03;14.80;;;2.75;;
79687;SDS011;69155;49.464;2.108;2023-07-30T04:29:43;7.50;;;2.50;;
79687;SDS011;69155;49.464;2.108;2023-07-30T04:32:11;15.40;;;3.35;;
79687;SDS011;69155;49.464;2.108;2023-07-30T04:34:44;12.40;;;2.92;;
79687;SDS011;69155;49.464;2.108;2023-07-30T04:37:12;11.82;;;2.67;;
79687;SDS011;69155;49.464;2.108;2023-07-30T04:39:43;13.27;;;3.15;;
79687;SDS011;69155;49.464;2.108;2023-07-30T04:45:23;7.63;;;2.13;;
79687;SDS011;69155;49.464;2.108;2023-07-30T04:50:42;9.23;;;2.53;;
79687;SDS011;69155;49.464;2.108;2023-07-30T04:53:13;13.40;;;3.75;;
79687;SDS011;69155;49.464;2.108;2023-07-30T04:55:41;10.50;;;2.60;;
79687;SDS011;69155;49.464;2.108;2023-07-30T04:58:12;10.25;;;2.42;;
79687;SDS011;69155;49.464;2.108;2023-07-30T05:01:01;14.75;;;3.10;;
79687;SDS011;69155;49.464;2.108;2023-07-30T05:03:32;17.80;;;3.13;;
79687;SDS011;69155;49.464;2.108;2023-07-30T05:06:03;32.83;;;4.68;;
79687;SDS011;69155;49.464;2.108;2023-07-30T05:08:34;41.83;;;4.55;;
79687;SDS011;69155;49.464;2.108;2023-07-30T05:11:02;11.45;;;3.00;;
79687;SDS011;69155;49.464;2.108;2023-07-30T05:13:34;17.15;;;3.17;;
79687;SDS011;69155;49.464;2.108;2023-07-30T05:16:02;11.07;;;2.63;;
79687;SDS011;69155;49.464;2.108;2023-07-30T05:18:33;18.33;;;3.63;;
79687;SDS011;69155;49.464;2.108;2023-07-30T05:21:01;14.57;;;3.20;;
79687;SDS011;69155;49.464;2.108;2023-07-30T05:23:33;19.05;;;4.18;;
79687;SDS011;69155;49.464;2.108;2023-07-30T05:26:04;11.52;;;2.75;;
79687;SDS011;69155;49.464;2.108;2023-07-30T05:28:32;13.43;;;2.90;;
79687;SDS011;69155;49.464;2.108;2023-07-30T05:31:04;18.00;;;3.58;;
79687;SDS011;69155;49.464;2.108;2023-07-30T05:33:32;17.00;;;2.95;;
79687;SDS011;69155;49.464;2.108;2023-07-30T05:36:03;11.77;;;2.50;;
79687;SDS011;69155;49.464;2.108;2023-07-30T05:38:34;22.15;;;3.05;;
79687;SDS011;69155;49.464;2.108;2023-07-30T05:41:02;10.10;;;2.90;;
79687;SDS011;69155;49.464;2.108;2023-07-30T05:43:33;12.52;;;3.05;;
79687;SDS011;69155;49.464;2.108;2023-07-30T05:46:04;15.25;;;2.90;;
79687;SDS011;69155;49.464;2.108;2023-07-30T05:48:32;11.77;;;3.65;;
79687;SDS011;69155;49.464;2.108;2023-07-30T05:51:03;15.15;;;3.28;;
79687;SDS011;69155;49.464;2.108;2023-07-30T05:53:34;15.07;;;3.50;;
79687;SDS011;69155;49.464;2.108;2023-07-30T05:56:02;10.98;;;2.65;;
79687;SDS011;69155;49.464;2.108;2023-07-30T05:58:34;15.68;;;3.13;;
79687;SDS011;69155;49.464;2.108;2023-07-30T06:01:03;11.10;;;2.85;;
79687;SDS011;69155;49.464;2.108;2023-07-30T06:03:34;18.77;;;3.55;;
79687;SDS011;69155;49.464;2.108;2023-07-30T06:06:02;10.73;;;2.97;;
79687;SDS011;69155;49.464;2.108;2023-07-30T06:08:31;15.30;;;4.20;;
79687;SDS011;69155;49.464;2.108;2023-07-30T06:11:03;21.08;;;2.95;;
79687;SDS011;69155;49.464;2.108;2023-07-30T06:13:31;11.20;;;3.35;;
79687;SDS011;69155;49.464;2.108;2023-07-30T06:16:03;13.02;;;3.25;;
79687;SDS011;69155;49.464;2.108;2023-07-30T06:18:32;11.40;;;3.63;;
79687;SDS011;69155;49.464;2.108;2023-07-30T06:21:03;13.77;;;2.58;;
79687;SDS011;69155;49.464;2.108;2023-07-30T06:23:32;8.18;;;2.20;;
79687;SDS011;69155;49.464;2.108;2023-07-30T06:26:03;16.95;;;2.90;;
79687;SDS011;69155;49.464;2.108;2023-07-30T06:28:43;12.88;;;2.80;;
79687;SDS011;69155;49.464;2.108;2023-07-30T06:31:14;12.52;;;3.13;;
79687;SDS011;69155;49.464;2.108;2023-07-30T06:36:32;10.73;;;2.60;;
79687;SDS011;69155;49.464;2.108;2023-07-30T06:39:03;10.90;;;2.83;;
79687;SDS011;69155;49.464;2.108;2023-07-30T06:44:22;20.73;;;3.95;;
79687;SDS011;69155;49.464;2.108;2023-07-30T06:46:52;10.23;;;2.97;;
79687;SDS011;69155;49.464;2.108;2023-07-30T06:49:23;14.40;;;2.78;;
79687;SDS011;69155;49.464;2.108;2023-07-30T06:51:54;5.25;;;2.20;;
79687;SDS011;69155;49.464;2.108;2023-07-30T06:54:25;14.48;;;3.00;;
79687;SDS011;69155;49.464;2.108;2023-07-30T06:56:53;14.43;;;2.65;;
79687;SDS011;69155;49.464;2.108;2023-07-30T06:59:45;12.80;;;2.63;;
79687;SDS011;69155;49.464;2.108;2023-07-30T07:02:13;10.32;;;2.30;;
79687;SDS011;69155;49.464;2.108;2023-07-30T07:04:42;11.52;;;2.60;;
79687;SDS011;69155;49.464;2.108;2023-07-30T07:07:14;11.73;;;3.05;;
79687;SDS011;69155;49.464;2.108;2023-07-30T07:09:42;8.68;;;3.05;;
79687;SDS011;69155;49.464;2.108;2023-07-30T07:12:13;8.82;;;2.70;;
79687;SDS011;69155;49.464;2.108;2023-07-30T07:14:44;11.57;;;3.15;;
79687;SDS011;69155;49.464;2.108;2023-07-30T07:17:12;13.00;;;2.80;;
79687;SDS011;69155;49.464;2.108;2023-07-30T07:22:33;10.15;;;2.65;;
79687;SDS011;69155;49.464;2.108;2023-07-30T07:25:13;12.35;;;2.35;;
79687;SDS011;69155;49.464;2.108;2023-07-30T07:27:53;13.40;;;3.05;;
79687;SDS011;69155;49.464;2.108;2023-07-30T07:30:24;10.25;;;3.25;;
79687;SDS011;69155;49.464;2.108;2023-07-30T07:32:52;11.20;;;3.20;;
79687;SDS011;69155;49.464;2.108;2023-07-30T07:35:23;12.32;;;3.05;;
79687;SDS011;69155;49.464;2.108;2023-07-30T07:38:03;11.57;;;2.63;;
79687;SDS011;69155;49.464;2.108;2023-07-30T07:40:44;12.73;;;2.50;;
79687;SDS011;69155;49.464;2.108;2023-07-30T07:43:12;7.60;;;2.22;;
79687;SDS011;69155;49.464;2.108;2023-07-30T07:45:43;15.15;;;3.25;;
79687;SDS011;69155;49.464;2.108;2023-07-30T07:48:11;14.57;;;2.67;;
79687;SDS011;69155;49.464;2.108;2023-07-30T07:50:42;20.40;;;3.40;;
79687;SDS011;69155;49.464;2.108;2023-07-30T07:53:13;15.98;;;3.95;;
79687;SDS011;69155;49.464;2.108;2023-07-30T07:55:41;7.10;;;2.47;;
79687;SDS011;69155;49.464;2.108;2023-07-30T07:58:12;10.05;;;2.42;;
79687;SDS011;69155;49.464;2.108;2023-07-30T08:03:32;12.88;;;2.63;;
79687;SDS011;69155;49.464;2.108;2023-07-30T08:06:03;10.77;;;2.95;;
79687;SDS011;69155;49.464;2.108;2023-07-30T08:08:34;9.00;;;2.78;;
79687;SDS011;69155;49.464;2.108;2023-07-30T08:11:06;11.68;;;3.50;;
79687;SDS011;69155;49.464;2.108;2023-07-30T08:13:43;11.57;;;3.08;;
79687;SDS011;69155;49.464;2.108;2023-07-30T08:16:14;9.05;;;2.28;;
79687;SDS011;69155;49.464;2.108;2023-07-30T08:18:42;12.50;;;3.15;;
79687;SDS011;69155;49.464;2.108;2023-07-30T08:21:13;16.92;;;3.08;;
79687;SDS011;69155;49.464;2.108;2023-07-30T08:23:54;11.32;;;3.75;;
79687;SDS011;69155;49.464;2.108;2023-07-30T08:26:22;14.23;;;2.72;;
79687;SDS011;69155;49.464;2.108;2023-07-30T08:28:54;16.27;;;2.50;;
79687;SDS011;69155;49.464;2.108;2023-07-30T08:31:22;9.18;;;2.55;;
79687;SDS011;69155;49.464;2.108;2023-07-30T08:33:53;7.82;;;2.30;;
79687;SDS011;69155;49.464;2.108;2023-07-30T08:36:21;13.55;;;2.40;;
79687;SDS011;69155;49.464;2.108;2023-07-30T08:38:53;9.90;;;2.53;;
79687;SDS011;69155;49.464;2.108;2023-07-30T08:41:24;7.85;;;2.40;;
79687;SDS011;69155;49.464;2.108;2023-07-30T08:43:52;10.55;;;2.83;;
79687;SDS011;69155;49.464;2.108;2023-07-30T08:46:24;14.32;;;2.85;;
79687;SDS011;69155;49.464;2.108;2023-07-30T08:51:43;11.20;;;3.00;;
79687;SDS011;69155;49.464;2.108;2023-07-30T08:54:15;9.75;;;3.33;;
79687;SDS011;69155;49.464;2.108;2023-07-30T08:56:53;4.88;;;2.28;;
79687;SDS011;69155;49.464;2.108;2023-07-30T08:59:24;8.88;;;2.60;;
79687;SDS011;69155;49.464;2.108;2023-07-30T09:02:03;7.18;;;2.40;;
79687;SDS011;69155;49.464;2.108;2023-07-30T09:04:43;14.35;;;4.07;;
79687;SDS011;69155;49.464;2.108;2023-07-30T09:07:23;10.23;;;2.80;;
79687;SDS011;69155;49.464;2.108;2023-07-30T09:09:52;6.28;;;2.22;;
79687;SDS011;69155;49.464;2.108;2023-07-30T09:12:33;4.85;;;1.92;;
79687;SDS011;69155;49.464;2.108;2023-07-30T09:15:05;9.88;;;2.60;;
79687;SDS011;69155;49.464;2.108;2023-07-30T09:17:43;7.93;;;2.78;;
79687;SDS011;69155;49.464;2.108;2023-07-30T09:20:12;13.70;;;3.33;;
79687;SDS011;69155;49.464;2.108;2023-07-30T09:22:43;7.03;;;2.45;;
79687;SDS011;69155;49.464;2.108;2023-07-30T09:27:53;8.68;;;2.17;;
79687;SDS011;69155;49.464;2.108;2023-07-30T09:30:25;9.70;;;3.10;;
79687;SDS011;69155;49.464;2.108;2023-07-30T09:35:44;13.52;;;2.58;;
79687;SDS011;69155;49.464;2.108;2023-07-30T09:38:12;7.53;;;2.45;;
79687;SDS011;69155;49.464;2.108;2023-07-30T09:40:45;7.82;;;2.65;;
79687;SDS011;69155;49.464;2.108;2023-07-30T09:43:27;9.20;;;2.80;;
79687;SDS011;69155;49.464;2.108;2023-07-30T09:46:03;8.90;;;2.42;;
79687;SDS011;69155;49.464;2.108;2023-07-30T09:48:34;8.95;;;2.35;;
79687;SDS011;69155;49.464;2.108;2023-07-30T09:51:03;18.38;;;2.80;;
79687;SDS011;69155;49.464;2.108;2023-07-30T09:53:32;40.33;;;33.42;;
79687;SDS011;69155;49.464;2.108;2023-07-30T09:56:02;53.92;;;44.25;;
79687;SDS011;69155;49.464;2.108;2023-07-30T09:58:34;7.90;;;3.85;;
79687;SDS011;69155;49.464;2.108;2023-07-30T10:01:01;6.32;;;4.25;;
79687;SDS011;69155;49.464;2.108;2023-07-30T10:03:31;9.98;;;3.05;;
79687;SDS011;69155;49.464;2.108;2023-07-30T10:06:01;8.20;;;2.80;;
79687;SDS011;69155;49.464;2.108;2023-07-30T10:08:34;11.55;;;7.40;;
79687;SDS011;69155;49.464;2.108;2023-07-30T10:11:04;24.58;;;21.10;;
79687;SDS011;69155;49.464;2.108;2023-07-30T10:13:42;11.68;;;7.65;;
79687;SDS011;69155;49.464;2.108;2023-07-30T10:16:13;10.20;;;3.25;;
79687;SDS011;69155;49.464;2.108;2023-07-30T10:18:43;17.85;;;8.98;;
79687;SDS011;69155;49.464;2.108;2023-07-30T10:21:21;28.15;;;18.67;;
79687;SDS011;69155;49.464;2.108;2023-07-30T10:23:59;73.18;;;47.13;;
79687;SDS011;69155;49.464;2.108;2023-07-30T10:26:34;110.93;;;71.40;;
79687;SDS011;69155;49.464;2.108;2023-07-30T10:29:14;59.90;;;39.90;;
79687;SDS011;69155;49.464;2.108;2023-07-30T10:31:55;48.63;;;28.27;;
79687;SDS011;69155;49.464;2.108;2023-07-30T10:34:44;21.48;;;11.27;;
79687;SDS011;69155;49.464;2.108;2023-07-30T10:37:24;26.35;;;13.77;;
79687;SDS011;69155;49.464;2.108;2023-07-30T10:39:53;41.22;;;28.98;;
79687;SDS011;69155;49.464;2.108;2023-07-30T10:42:32;45.30;;;31.25;;
79687;SDS011;69155;49.464;2.108;2023-07-30T10:45:06;20.23;;;8.93;;
79687;SDS011;69155;49.464;2.108;2023-07-30T10:47:47;6.07;;;2.63;;
79687;SDS011;69155;49.464;2.108;2023-07-30T10:50:12;7.60;;;2.83;;
79687;SDS011;69155;49.464;2.108;2023-07-30T10:52:40;8.73;;;3.50;;
79687;SDS011;69155;49.464;2.108;2023-07-30T10:55:05;12.93;;;6.10;;
79687;SDS011;69155;49.464;2.108;2023-07-30T10:57:30;8.65;;;2.58;;
79687;SDS011;69155;49.464;2.108;2023-07-30T11:00:02;6.72;;;2.22;;
79687;SDS011;69155;49.464;2.108;2023-07-30T11:02:30;6.60;;;2.60;;
79687;SDS011;69155;49.464;2.108;2023-07-30T11:04:55;8.98;;;2.60;;
79687;SDS011;69155;49.464;2.108;2023-07-30T11:07:21;6.80;;;2.50;;
79687;SDS011;69155;49.464;2.108;2023-07-30T11:09:58;6.43;;;2.03;;
79687;SDS011;69155;49.464;2.108;2023-07-30T11:12:33;9.38;;;2.08;;
79687;SDS011;69155;49.464;2.108;2023-07-30T11:18:02;5.72;;;2.10;;
79687;SDS011;69155;49.464;2.108;2023-07-30T11:20:33;7.28;;;2.95;;
79687;SDS011;69155;49.464;2.108;2023-07-30T11:23:03;5.45;;;2.20;;
79687;SDS011;69155;49.464;2.108;2023-07-30T11:25:53;9.15;;;3.42;;
79687;SDS011;69155;49.464;2.108;2023-07-30T11:31:34;4.22;;;2.00;;
79687;SDS011;69155;49.464;2.108;2023-07-30T11:34:02;5.70;;;2.50;;
79687;SDS011;69155;49.464;2.108;2023-07-30T11:36:32;7.45;;;2.83;;
79687;SDS011;69155;49.464;2.108;2023-07-30T11:39:04;4.63;;;2.30;;
79687;SDS011;69155;49.464;2.108;2023-07-30T11:41:32;9.52;;;2.78;;
79687;SDS011;69155;49.464;2.108;2023-07-30T11:44:04;5.13;;;2.30;;
79687;SDS011;69155;49.464;2.108;2023-07-30T11:46:32;5.82;;;2.30;;
79687;SDS011;69155;49.464;2.108;2023-07-30T11:52:04;11.32;;;2.70;;
79687;SDS011;69155;49.464;2.108;2023-07-30T11:54:37;7.20;;;2.47;;
79687;SDS011;69155;49.464;2.108;2023-07-30T11:57:14;9.40;;;2.70;;
79687;SDS011;69155;49.464;2.108;2023-07-30T11:59:42;5.57;;;1.90;;
79687;SDS011;69155;49.464;2.108;2023-07-30T12:02:16;6.38;;;2.92;;
79687;SDS011;69155;49.464;2.108;2023-07-30T12:04:54;6.40;;;2.88;;
79687;SDS011;69155;49.464;2.108;2023-07-30T12:07:32;5.65;;;2.05;;
79687;SDS011;69155;49.464;2.108;2023-07-30T12:10:10;9.70;;;2.60;;
79687;SDS011;69155;49.464;2.108;2023-07-30T12:12:44;6.88;;;2.40;;
79687;SDS011;69155;49.464;2.108;2023-07-30T12:15:23;7.10;;;2.60;;
79687;SDS011;69155;49.464;2.108;2023-07-30T12:18:11;8.00;;;2.50;;
79687;SDS011;69155;49.464;2.108;2023-07-30T12:20:42;6.80;;;2.10;;
79687;SDS011;69155;49.464;2.108;2023-07-30T12:23:13;8.43;;;2.63;;
79687;SDS011;69155;49.464;2.108;2023-07-30T12:25:39;5.13;;;2.38;;
79687;SDS011;69155;49.464;2.108;2023-07-30T12:28:12;5.00;;;2.22;;
79687;SDS011;69155;49.464;2.108;2023-07-30T12:30:44;8.25;;;2.33;;
79687;SDS011;69155;49.464;2.108;2023-07-30T12:33:12;4.32;;;2.30;;
79687;SDS011;69155;49.464;2.108;2023-07-30T12:35:43;6.80;;;2.50;;
79687;SDS011;69155;49.464;2.108;2023-07-30T12:38:11;7.82;;;2.50;;
79687;SDS011;69155;49.464;2.108;2023-07-30T12:40:42;10.73;;;2.58;;
79687;SDS011;69155;49.464;2.108;2023-07-30T12:43:16;7.53;;;2.35;;
79687;SDS011;69155;49.464;2.108;2023-07-30T12:45:43;5.68;;;2.40;;
79687;SDS011;69155;49.464;2.108;2023-07-30T12:48:12;6.57;;;2.40;;
79687;SDS011;69155;49.464;2.108;2023-07-30T12:50:43;8.40;;;2.75;;
79687;SDS011;69155;49.464;2.108;2023-07-30T12:53:11;7.53;;;3.28;;
79687;SDS011;69155;49.464;2.108;2023-07-30T12:55:42;7.00;;;2.55;;
79687;SDS011;69155;49.464;2.108;2023-07-30T12:58:13;9.60;;;2.58;;
79687;SDS011;69155;49.464;2.108;2023-07-30T13:00:42;7.40;;;2.60;;
79687;SDS011;69155;49.464;2.108;2023-07-30T13:03:14;6.60;;;3.22;;
79687;SDS011;69155;49.464;2.108;2023-07-30T13:05:42;9.30;;;2.70;;
79687;SDS011;69155;49.464;2.108;2023-07-30T13:08:13;7.57;;;2.83;;
79687;SDS011;69155;49.464;2.108;2023-07-30T13:10:42;8.85;;;3.58;;
79687;SDS011;69155;49.464;2.108;2023-07-30T13:13:13;8.75;;;2.90;;
79687;SDS011;69155;49.464;2.108;2023-07-30T13:15:44;9.93;;;3.08;;
79687;SDS011;69155;49.464;2.108;2023-07-30T13:18:12;10.20;;;3.00;;
79687;SDS011;69155;49.464;2.108;2023-07-30T13:20:44;8.77;;;3.20;;
79687;SDS011;69155;49.464;2.108;2023-07-30T13:23:42;5.45;;;2.80;;
79687;SDS011;69155;49.464;2.108;2023-07-30T13:26:03;7.00;;;2.72;;
79687;SDS011;69155;49.464;2.108;2023-07-30T13:28:34;5.35;;;2.53;;
79687;SDS011;69155;49.464;2.108;2023-07-30T13:31:03;9.10;;;3.22;;
79687;SDS011;69155;49.464;2.108;2023-07-30T13:33:34;7.30;;;3.45;;
79687;SDS011;69155;49.464;2.108;2023-07-30T13:36:02;6.13;;;3.00;;
79687;SDS011;69155;49.464;2.108;2023-07-30T13:44:24;6.38;;;2.78;;
79687;SDS011;69155;49.464;2.108;2023-07-30T13:46:52;4.65;;;2.65;;
79687;SDS011;69155;49.464;2.108;2023-07-30T13:49:24;7.53;;;3.05;;
79687;SDS011;69155;49.464;2.108;2023-07-30T13:51:55;10.18;;;2.80;;
79687;SDS011;69155;49.464;2.108;2023-07-30T13:54:23;7.53;;;3.17;;
79687;SDS011;69155;49.464;2.108;2023-07-30T13:56:52;5.68;;;2.75;;
79687;SDS011;69155;49.464;2.108;2023-07-30T13:59:23;9.40;;;2.50;;
79687;SDS011;69155;49.464;2.108;2023-07-30T14:04:42;4.32;;;1.83;;
79687;SDS011;69155;49.464;2.108;2023-07-30T14:07:13;5.43;;;2.40;;
79687;SDS011;69155;49.464;2.108;2023-07-30T14:09:44;6.30;;;2.20;;
79687;SDS011;69155;49.464;2.108;2023-07-30T14:12:13;5.45;;;2.20;;
79687;SDS011;69155;49.464;2.108;2023-07-30T14:14:44;6.75;;;2.80;;
79687;SDS011;69155;49.464;2.108;2023-07-30T14:17:12;5.78;;;2.25;;
79687;SDS011;69155;49.464;2.108;2023-07-30T14:19:43;7.00;;;2.88;;
79687;SDS011;69155;49.464;2.108;2023-07-30T14:22:14;6.30;;;2.35;;
79687;SDS011;69155;49.464;2.108;2023-07-30T14:24:42;7.65;;;2.97;;
79687;SDS011;69155;49.464;2.108;2023-07-30T14:27:12;8.70;;;2.30;;
79687;SDS011;69155;49.464;2.108;2023-07-30T14:29:43;7.75;;;2.60;;
79687;SDS011;69155;49.464;2.108;2023-07-30T14:32:14;10.38;;;2.83;;
79687;SDS011;69155;49.464;2.108;2023-07-30T14:34:42;6.13;;;2.58;;
79687;SDS011;69155;49.464;2.108;2023-07-30T14:37:12;8.48;;;2.38;;
79687;SDS011;69155;49.464;2.108;2023-07-30T14:39:40;8.13;;;2.90;;
79687;SDS011;69155;49.464;2.108;2023-07-30T14:42:09;7.43;;;2.90;;
79687;SDS011;69155;49.464;2.108;2023-07-30T14:44:35;7.07;;;2.70;;
79687;SDS011;69155;49.464;2.108;2023-07-30T14:47:03;6.93;;;3.20;;
79687;SDS011;69155;49.464;2.108;2023-07-30T14:49:32;7.38;;;2.45;;
79687;SDS011;69155;49.464;2.108;2023-07-30T14:54:52;8.82;;;3.00;;
79687;SDS011;69155;49.464;2.108;2023-07-30T14:57:19;5.93;;;2.15;;
79687;SDS011;69155;49.464;2.108;2023-07-30T15:02:18;5.75;;;2.47;;
79687;SDS011;69155;49.464;2.108;2023-07-30T15:05:03;8.48;;;3.15;;
79687;SDS011;69155;49.464;2.108;2023-07-30T15:07:28;7.60;;;3.00;;
79687;SDS011;69155;49.464;2.108;2023-07-30T15:09:54;7.43;;;3.07;;
79687;SDS011;69155;49.464;2.108;2023-07-30T15:12:22;10.20;;;2.72;;
79687;SDS011;69155;49.464;2.108;2023-07-30T15:15:10;8.25;;;3.00;;
79687;SDS011;69155;49.464;2.108;2023-07-30T15:17:33;6.45;;;2.50;;
79687;SDS011;69155;49.464;2.108;2023-07-30T15:20:02;9.30;;;2.58;;
79687;SDS011;69155;49.464;2.108;2023-07-30T15:22:35;6.53;;;2.25;;
79687;SDS011;69155;49.464;2.108;2023-07-30T15:25:03;6.50;;;2.45;;
79687;SDS011;69155;49.464;2.108;2023-07-30T15:27:32;5.20;;;2.28;;
79687;SDS011;69155;49.464;2.108;2023-07-30T15:29:57;4.10;;;2.53;;
79687;SDS011;69155;49.464;2.108;2023-07-30T15:32:25;9.35;;;2.83;;
79687;SDS011;69155;49.464;2.108;2023-07-30T15:35:05;8.45;;;2.28;;
79687;SDS011;69155;49.464;2.108;2023-07-30T15:37:34;7.95;;;2.65;;
79687;SDS011;69155;49.464;2.108;2023-07-30T15:40:02;6.75;;;2.95;;
79687;SDS011;69155;49.464;2.108;2023-07-30T15:45:25;2.95;;;1.75;;
79687;SDS011;69155;49.464;2.108;2023-07-30T15:47:52;6.15;;;2.10;;
79687;SDS011;69155;49.464;2.108;2023-07-30T15:50:24;5.13;;;2.10;;
79687;SDS011;69155;49.464;2.108;2023-07-30T15:52:51;3.33;;;1.80;;
79687;SDS011;69155;49.464;2.108;2023-07-30T15:55:16;4.25;;;2.20;;
79687;SDS011;69155;49.464;2.108;2023-07-30T15:57:42;7.63;;;2.00;;
79687;SDS011;69155;49.464;2.108;2023-07-30T16:00:09;3.83;;;1.90;;
79687;SDS011;69155;49.464;2.108;2023-07-30T16:02:40;7.82;;;2.78;;
79687;SDS011;69155;49.464;2.108;2023-07-30T16:05:12;9.50;;;2.45;;
79687;SDS011;69155;49.464;2.108;2023-07-30T16:07:43;10.30;;;2.40;;